createdAt,value
2018-12-20T00:01:22.981Z,925.59
2018-12-20T00:02:54.407Z,925.62
2018-12-20T00:04:25.998Z,925.59
2018-12-20T00:05:57.559Z,925.55
2018-12-20T00:07:29.257Z,925.58
2018-12-20T00:09:00.801Z,925.61
2018-12-20T00:10:32.440Z,925.65
2018-12-20T00:12:03.868Z,925.64
2018-12-20T00:13:35.454Z,925.67
2018-12-20T00:15:07.213Z,925.71
2018-12-20T00:16:38.597Z,925.69
2018-12-20T00:18:10.191Z,925.70
2018-12-20T00:19:41.770Z,925.75
2018-12-20T00:21:13.334Z,925.72
2018-12-20T00:22:44.907Z,925.79
2018-12-20T00:24:16.482Z,925.81
2018-12-20T00:25:48.097Z,925.82
2018-12-20T00:27:19.817Z,925.83
2018-12-20T00:28:51.213Z,925.82
2018-12-20T00:30:22.789Z,925.81
2018-12-20T00:31:54.392Z,925.82
2018-12-20T00:33:26.071Z,925.84
2018-12-20T00:34:57.520Z,925.82
2018-12-20T00:36:29.103Z,925.88
2018-12-20T00:38:00.768Z,925.91
2018-12-20T00:39:32.261Z,925.91
2018-12-20T00:41:03.918Z,925.93
2018-12-20T00:42:36.002Z,925.95
2018-12-20T00:44:07.041Z,925.94
2018-12-20T00:45:38.585Z,925.94
2018-12-20T00:47:10.136Z,925.98
2018-12-20T00:48:41.718Z,925.95
2018-12-20T00:50:13.389Z,925.95
2018-12-20T00:51:45.083Z,925.94
2018-12-20T00:53:16.529Z,925.97
2018-12-20T00:54:48.125Z,925.93
2018-12-20T00:56:19.597Z,925.94
2018-12-20T00:57:51.174Z,925.95
2018-12-20T00:59:22.984Z,925.94
2018-12-20T01:00:54.477Z,926.00
2018-12-20T01:02:26.024Z,926.01
2018-12-20T01:03:57.564Z,926.00
2018-12-20T01:05:29.064Z,925.98
2018-12-20T01:07:00.636Z,925.97
2018-12-20T01:08:32.224Z,926.00
2018-12-20T01:10:04.055Z,925.99
2018-12-20T01:11:35.366Z,926.02
2018-12-20T01:13:06.996Z,926.04
2018-12-20T01:14:45.172Z,926.01
2018-12-20T01:16:10.098Z,925.99
2018-12-20T01:17:41.673Z,926.01
2018-12-20T01:19:13.290Z,926.02
2018-12-20T01:20:44.912Z,926.03
2018-12-20T01:22:16.883Z,926.03
2018-12-20T01:23:47.979Z,926.07
2018-12-20T01:25:19.646Z,926.05
2018-12-20T01:26:51.300Z,926.03
2018-12-20T01:28:22.809Z,926.07
2018-12-20T01:29:54.308Z,926.03
2018-12-20T01:31:26.013Z,926.03
2018-12-20T01:32:57.461Z,926.03
2018-12-20T01:34:29.217Z,926.02
2018-12-20T01:36:00.591Z,925.93
2018-12-20T01:37:32.316Z,925.92
2018-12-20T01:39:03.747Z,925.89
2018-12-20T01:40:35.522Z,925.91
2018-12-20T01:42:07.058Z,925.87
2018-12-20T01:43:38.494Z,925.86
2018-12-20T01:45:10.190Z,925.89
2018-12-20T01:46:41.861Z,925.90
2018-12-20T01:48:13.261Z,925.87
2018-12-20T01:49:44.893Z,925.88
2018-12-20T01:51:16.535Z,925.91
2018-12-20T01:52:47.998Z,925.90
2018-12-20T01:54:19.516Z,925.89
2018-12-20T01:55:51.094Z,925.86
2018-12-20T01:57:22.775Z,925.82
2018-12-20T01:58:54.241Z,925.79
2018-12-20T02:00:25.856Z,925.79
2018-12-20T02:01:57.484Z,925.77
2018-12-20T02:03:29.260Z,925.76
2018-12-20T02:05:00.762Z,925.75
2018-12-20T02:06:32.167Z,925.72
2018-12-20T02:08:03.965Z,925.73
2018-12-20T02:09:35.277Z,925.71
2018-12-20T02:11:06.852Z,925.66
2018-12-20T02:12:38.431Z,925.63
2018-12-20T02:14:10.023Z,925.59
2018-12-20T02:15:41.710Z,925.59
2018-12-20T02:17:13.156Z,925.60
2018-12-20T02:18:44.952Z,925.51
2018-12-20T02:20:16.311Z,925.54
2018-12-20T02:21:47.885Z,925.51
2018-12-20T02:23:19.751Z,925.48
2018-12-20T02:24:51.042Z,925.46
2018-12-20T02:26:22.624Z,925.41
2018-12-20T02:27:54.372Z,925.42
2018-12-20T02:29:25.769Z,925.33
2018-12-20T02:30:57.343Z,925.35
2018-12-20T02:32:29.075Z,925.32
2018-12-20T02:34:00.511Z,925.27
2018-12-20T02:35:32.071Z,925.23
2018-12-20T02:37:03.689Z,925.17
2018-12-20T02:38:35.226Z,925.17
2018-12-20T02:40:06.981Z,925.16
2018-12-20T02:41:38.625Z,925.15
2018-12-20T02:43:09.956Z,925.10
2018-12-20T02:44:41.654Z,925.06
2018-12-20T02:46:13.155Z,925.07
2018-12-20T02:47:44.796Z,925.02
2018-12-20T02:49:16.615Z,924.92
2018-12-20T02:50:48.024Z,924.95
2018-12-20T02:52:19.455Z,924.95
2018-12-20T02:53:51.128Z,924.95
2018-12-20T02:55:22.583Z,924.87
2018-12-20T02:56:54.138Z,924.85
2018-12-20T02:58:25.848Z,924.87
2018-12-20T02:59:57.408Z,924.89
2018-12-20T03:01:28.867Z,924.83
2018-12-20T03:03:00.443Z,924.77
2018-12-20T03:04:32.102Z,924.81
2018-12-20T03:06:03.739Z,924.75
2018-12-20T03:07:35.331Z,924.70
2018-12-20T03:09:06.776Z,924.65
2018-12-20T03:10:38.413Z,924.61
2018-12-20T03:12:10.185Z,924.57
2018-12-20T03:13:41.475Z,924.51
2018-12-20T03:15:19.939Z,924.47
2018-12-20T03:16:44.627Z,924.42
2018-12-20T03:18:16.342Z,924.40
2018-12-20T03:19:47.781Z,924.34
2018-12-20T03:21:19.384Z,924.31
2018-12-20T03:22:51.028Z,924.24
2018-12-20T03:24:22.507Z,924.28
2018-12-20T03:25:54.258Z,924.25
2018-12-20T03:27:25.809Z,924.28
2018-12-20T03:28:57.548Z,924.27
2018-12-20T03:30:28.811Z,924.28
2018-12-20T03:32:00.807Z,924.21
2018-12-20T03:33:31.966Z,924.21
2018-12-20T03:35:03.541Z,924.22
2018-12-20T03:36:35.266Z,924.20
2018-12-20T03:38:06.710Z,924.18
2018-12-20T03:39:38.386Z,924.20
2018-12-20T03:41:09.843Z,924.19
2018-12-20T03:42:41.510Z,924.19
2018-12-20T03:44:12.998Z,924.19
2018-12-20T03:45:44.575Z,924.18
2018-12-20T03:47:16.312Z,924.17
2018-12-20T03:48:47.897Z,924.16
2018-12-20T03:50:19.356Z,924.20
2018-12-20T03:51:51.109Z,924.14
2018-12-20T03:53:22.467Z,924.16
2018-12-20T03:54:54.171Z,924.15
2018-12-20T03:56:25.606Z,924.14
2018-12-20T03:57:57.180Z,924.14
2018-12-20T03:59:28.757Z,924.15
2018-12-20T04:01:00.468Z,924.17
2018-12-20T04:02:31.911Z,924.17
2018-12-20T04:04:03.606Z,924.12
2018-12-20T04:05:35.251Z,924.11
2018-12-20T04:07:06.637Z,924.15
2018-12-20T04:08:38.230Z,924.10
2018-12-20T04:10:10.111Z,924.17
2018-12-20T04:11:41.624Z,924.14
2018-12-20T04:13:13.080Z,924.12
2018-12-20T04:14:44.620Z,924.09
2018-12-20T04:16:16.132Z,924.08
2018-12-20T04:17:47.677Z,924.06
2018-12-20T04:19:19.244Z,924.07
2018-12-20T04:20:50.819Z,924.06
2018-12-20T04:22:22.397Z,924.05
2018-12-20T04:23:54.127Z,924.04
2018-12-20T04:25:25.566Z,924.03
2018-12-20T04:26:57.125Z,924.01
2018-12-20T04:28:29.044Z,924.00
2018-12-20T04:30:00.499Z,924.00
2018-12-20T04:31:31.953Z,923.98
2018-12-20T04:33:03.427Z,923.98
2018-12-20T04:34:35.089Z,923.97
2018-12-20T04:36:06.768Z,923.93
2018-12-20T04:37:38.154Z,923.96
2018-12-20T04:39:09.763Z,923.94
2018-12-20T04:40:41.458Z,923.90
2018-12-20T04:42:12.883Z,923.87
2018-12-20T04:43:44.458Z,923.89
2018-12-20T04:45:16.033Z,923.85
2018-12-20T04:46:47.647Z,923.82
2018-12-20T04:48:19.330Z,923.88
2018-12-20T04:49:50.862Z,923.86
2018-12-20T04:51:22.520Z,923.83
2018-12-20T04:52:54.092Z,923.86
2018-12-20T04:54:25.893Z,923.80
2018-12-20T04:55:57.096Z,923.82
2018-12-20T04:57:28.660Z,923.79
2018-12-20T04:59:00.214Z,923.82
2018-12-20T05:00:32.076Z,923.80
2018-12-20T05:02:03.521Z,923.78
2018-12-20T05:03:35.221Z,923.76
2018-12-20T05:05:06.559Z,923.80
2018-12-20T05:06:38.091Z,923.77
2018-12-20T05:08:09.861Z,923.80
2018-12-20T05:09:41.243Z,923.79
2018-12-20T05:11:12.863Z,923.80
2018-12-20T05:12:44.483Z,923.81
2018-12-20T05:14:16.142Z,923.79
2018-12-20T05:15:55.830Z,923.73
2018-12-20T05:17:19.271Z,923.73
2018-12-20T05:18:50.737Z,923.68
2018-12-20T05:20:22.315Z,923.68
2018-12-20T05:21:54.032Z,923.67
2018-12-20T05:23:25.474Z,923.67
2018-12-20T05:24:57.000Z,923.63
2018-12-20T05:26:28.875Z,923.64
2018-12-20T05:28:00.152Z,923.60
2018-12-20T05:29:31.939Z,923.62
2018-12-20T05:31:03.368Z,923.55
2018-12-20T05:32:34.998Z,923.53
2018-12-20T05:34:06.462Z,923.54
2018-12-20T05:35:38.034Z,923.50
2018-12-20T05:37:09.684Z,923.50
2018-12-20T05:38:41.183Z,923.43
2018-12-20T05:40:12.767Z,923.40
2018-12-20T05:41:44.389Z,923.32
2018-12-20T05:43:15.955Z,923.29
2018-12-20T05:44:47.852Z,923.26
2018-12-20T05:46:19.236Z,923.28
2018-12-20T05:47:50.716Z,923.25
2018-12-20T05:49:22.214Z,923.28
2018-12-20T05:50:53.971Z,923.29
2018-12-20T05:52:25.485Z,923.31
2018-12-20T05:53:57.017Z,923.34
2018-12-20T05:55:28.615Z,923.32
2018-12-20T05:57:00.114Z,923.33
2018-12-20T05:58:31.871Z,923.33
2018-12-20T06:00:03.246Z,923.36
2018-12-20T06:01:34.971Z,923.36
2018-12-20T06:03:06.608Z,923.40
2018-12-20T06:04:38.130Z,923.43
2018-12-20T06:06:09.586Z,923.43
2018-12-20T06:07:41.126Z,923.42
2018-12-20T06:09:12.958Z,923.41
2018-12-20T06:10:44.282Z,923.42
2018-12-20T06:12:16.180Z,923.42
2018-12-20T06:13:47.492Z,923.38
2018-12-20T06:15:19.008Z,923.38
2018-12-20T06:16:50.790Z,923.36
2018-12-20T06:18:22.303Z,923.36
2018-12-20T06:19:53.753Z,923.27
2018-12-20T06:21:25.633Z,923.30
2018-12-20T06:22:56.886Z,923.32
2018-12-20T06:24:28.461Z,923.31
2018-12-20T06:26:00.037Z,923.30
2018-12-20T06:27:31.613Z,923.32
2018-12-20T06:29:03.190Z,923.34
2018-12-20T06:30:34.765Z,923.34
2018-12-20T06:32:06.341Z,923.34
2018-12-20T06:33:37.918Z,923.34
2018-12-20T06:35:09.493Z,923.34
2018-12-20T06:36:41.093Z,923.37
2018-12-20T06:38:12.644Z,923.40
2018-12-20T06:39:44.320Z,923.44
2018-12-20T06:41:15.796Z,923.49
2018-12-20T06:42:47.372Z,923.46
2018-12-20T06:44:18.947Z,923.50
2018-12-20T06:45:50.528Z,923.50
2018-12-20T06:47:22.099Z,923.48
2018-12-20T06:48:53.675Z,923.46
2018-12-20T06:50:25.250Z,923.41
2018-12-20T06:51:56.827Z,923.38
2018-12-20T06:53:28.403Z,923.39
2018-12-20T06:54:59.978Z,923.39
2018-12-20T06:56:31.554Z,923.39
2018-12-20T06:58:03.232Z,923.42
2018-12-20T06:59:34.705Z,923.43
2018-12-20T07:01:06.279Z,923.38
2018-12-20T07:02:38.587Z,923.38
2018-12-20T07:04:09.431Z,923.41
2018-12-20T07:05:41.007Z,923.35
2018-12-20T07:07:12.582Z,923.34
2018-12-20T07:08:44.156Z,923.34
2018-12-20T07:10:15.731Z,923.34
2018-12-20T07:11:47.307Z,923.40
2018-12-20T07:13:18.883Z,923.44
2018-12-20T07:14:50.458Z,923.50
2018-12-20T07:16:29.102Z,923.46
2018-12-20T07:17:53.609Z,923.50
2018-12-20T07:19:25.184Z,923.47
2018-12-20T07:20:56.760Z,923.42
2018-12-20T07:22:28.335Z,923.45
2018-12-20T07:23:59.910Z,923.47
2018-12-20T07:25:31.485Z,923.45
2018-12-20T07:27:03.061Z,923.45
2018-12-20T07:28:34.636Z,923.49
2018-12-20T07:30:06.211Z,923.49
2018-12-20T07:31:37.786Z,923.50
2018-12-20T07:33:09.362Z,923.57
2018-12-20T07:34:47.747Z,923.58
2018-12-20T07:36:12.512Z,923.63
2018-12-20T07:37:44.089Z,923.65
2018-12-20T07:39:15.662Z,923.65
2018-12-20T07:40:47.259Z,923.66
2018-12-20T07:42:18.825Z,923.67
2018-12-20T07:43:50.389Z,923.65
2018-12-20T07:45:21.964Z,923.68
2018-12-20T07:46:53.541Z,923.72
2018-12-20T07:48:32.019Z,923.77
2018-12-20T07:49:56.689Z,923.84
2018-12-20T07:51:28.265Z,923.94
2018-12-20T07:52:59.941Z,923.94
2018-12-20T07:54:31.418Z,923.99
2018-12-20T07:56:02.991Z,924.02
2018-12-20T07:57:34.566Z,923.97
2018-12-20T07:59:06.142Z,924.02
2018-12-20T08:00:37.726Z,924.05
2018-12-20T08:02:09.326Z,924.08
2018-12-20T08:03:40.880Z,924.15
2018-12-20T08:05:12.467Z,924.14
2018-12-20T08:06:44.049Z,924.17
2018-12-20T08:08:15.593Z,924.19
2018-12-20T08:09:47.173Z,924.23
2018-12-20T08:11:18.885Z,924.24
2018-12-20T08:12:50.318Z,924.30
2018-12-20T08:14:21.893Z,924.27
2018-12-20T08:15:53.476Z,924.29
2018-12-20T08:17:25.084Z,924.30
2018-12-20T08:18:56.624Z,924.33
2018-12-20T08:20:28.201Z,924.30
2018-12-20T08:21:59.856Z,924.30
2018-12-20T08:23:31.417Z,924.35
2018-12-20T08:25:02.928Z,924.30
2018-12-20T08:26:34.496Z,924.31
2018-12-20T08:28:06.072Z,924.31
2018-12-20T08:29:37.748Z,924.30
2018-12-20T08:31:09.222Z,924.35
2018-12-20T08:32:40.800Z,924.38
2018-12-20T08:34:12.374Z,924.37
2018-12-20T08:35:44.084Z,924.44
2018-12-20T08:37:15.523Z,924.51
2018-12-20T08:38:47.100Z,924.51
2018-12-20T08:40:18.675Z,924.51
2018-12-20T08:41:50.251Z,924.47
2018-12-20T08:43:21.826Z,924.52
2018-12-20T08:44:53.399Z,924.51
2018-12-20T08:46:24.977Z,924.55
2018-12-20T08:47:56.651Z,924.59
2018-12-20T08:49:28.126Z,924.69
2018-12-20T08:50:59.702Z,924.70
2018-12-20T08:52:31.280Z,924.77
2018-12-20T08:54:02.852Z,924.77
2018-12-20T08:55:34.442Z,924.78
2018-12-20T08:57:06.003Z,924.80
2018-12-20T08:58:37.578Z,924.81
2018-12-20T09:00:09.160Z,924.85
2018-12-20T09:01:40.728Z,924.88
2018-12-20T09:03:12.306Z,924.89
2018-12-20T09:04:43.880Z,924.96
2018-12-20T09:06:15.556Z,925.01
2018-12-20T09:07:47.032Z,925.05
2018-12-20T09:09:18.607Z,925.12
2018-12-20T09:10:50.182Z,925.14
2018-12-20T09:13:53.338Z,925.22
2018-12-20T09:15:24.913Z,925.25
2018-12-20T09:17:02.910Z,925.27
2018-12-20T09:18:28.062Z,925.30
2018-12-20T09:19:59.640Z,925.28
2018-12-20T09:23:02.792Z,925.26
2018-12-20T09:24:34.368Z,925.30
2018-12-20T09:26:06.044Z,925.33
2018-12-20T09:27:37.723Z,925.36
2018-12-20T09:29:09.415Z,925.37
2018-12-20T09:30:40.675Z,925.37
2018-12-20T09:32:12.250Z,925.38
2018-12-20T09:35:15.407Z,925.45
2018-12-20T09:36:47.506Z,925.47
2018-12-20T09:38:18.561Z,925.54
2018-12-20T09:39:50.445Z,925.60
2018-12-20T09:41:21.713Z,925.66
2018-12-20T09:44:25.275Z,925.69
2018-12-20T09:45:56.500Z,925.69
2018-12-20T09:47:28.079Z,925.74
2018-12-20T09:50:31.383Z,925.76
2018-12-20T09:52:02.760Z,925.77
2018-12-20T09:53:34.340Z,925.80
2018-12-20T09:55:05.927Z,925.69
2018-12-20T09:56:37.701Z,925.63
2018-12-20T09:58:09.379Z,925.64
2018-12-20T09:59:40.652Z,925.57
2018-12-20T10:01:12.229Z,925.67
2018-12-20T10:02:43.909Z,925.72
2018-12-20T10:04:16.115Z,925.73
2018-12-20T10:05:47.489Z,925.72
2018-12-20T10:07:18.545Z,925.74
2018-12-20T10:08:50.133Z,925.75
2018-12-20T10:10:21.702Z,925.68
2018-12-20T10:13:24.860Z,925.62
2018-12-20T10:14:56.439Z,925.62
2018-12-20T10:16:28.023Z,925.63
2018-12-20T10:19:31.377Z,925.73
2018-12-20T10:21:02.856Z,925.75
2018-12-20T10:22:34.334Z,925.81
2018-12-20T10:24:05.912Z,925.88
2018-12-20T10:25:37.693Z,925.90
2018-12-20T10:27:09.069Z,925.92
2018-12-20T10:28:40.648Z,925.90
2018-12-20T10:30:12.229Z,925.94
2018-12-20T10:34:47.271Z,926.02
2018-12-20T10:36:18.546Z,925.98
2018-12-20T10:37:50.125Z,926.04
2018-12-20T10:39:21.703Z,926.06
2018-12-20T10:42:25.269Z,926.19
2018-12-20T10:43:56.588Z,926.17
2018-12-20T10:45:28.058Z,926.21
2018-12-20T10:48:31.394Z,926.20
2018-12-20T10:50:02.772Z,926.12
2018-12-20T10:51:34.351Z,926.07
2018-12-20T10:53:06.239Z,925.96
2018-12-20T10:54:37.578Z,925.92
2018-12-20T10:56:09.096Z,925.95
2018-12-20T10:57:40.677Z,925.94
2018-12-20T10:59:12.263Z,925.99
2018-12-20T11:00:43.941Z,926.03
2018-12-20T11:02:15.422Z,926.05
2018-12-20T11:03:47.007Z,926.03
2018-12-20T11:05:18.606Z,925.99
2018-12-20T11:06:50.167Z,926.02
2018-12-20T11:08:21.749Z,925.98
2018-12-20T11:09:53.466Z,925.98
2018-12-20T11:11:25.218Z,925.97
2018-12-20T11:12:56.494Z,926.01
2018-12-20T11:14:28.076Z,925.98
2018-12-20T11:15:59.812Z,925.95
2018-12-20T11:20:35.026Z,925.93
2018-12-20T11:23:37.632Z,925.95
2018-12-20T11:25:09.353Z,925.90
2018-12-20T11:26:40.735Z,925.88
2018-12-20T11:28:12.314Z,925.85
2018-12-20T11:29:43.898Z,925.83
2018-12-20T11:31:15.503Z,925.84
2018-12-20T11:32:47.063Z,925.82
2018-12-20T11:34:18.705Z,925.83
2018-12-20T11:35:50.301Z,925.82
2018-12-20T11:37:21.885Z,925.80
2018-12-20T11:38:53.495Z,925.82
2018-12-20T11:40:25.306Z,925.78
2018-12-20T11:41:56.563Z,925.79
2018-12-20T11:45:00.238Z,925.77
2018-12-20T11:48:02.899Z,925.82
2018-12-20T11:49:34.731Z,925.83
2018-12-20T11:51:06.077Z,925.82
2018-12-20T11:52:42.345Z,925.85
2018-12-20T11:54:09.499Z,925.83
2018-12-20T11:55:41.219Z,925.82
2018-12-20T11:57:12.873Z,925.84
2018-12-20T11:58:44.209Z,925.81
2018-12-20T12:00:16.023Z,925.77
2018-12-20T12:01:47.156Z,925.80
2018-12-20T12:03:18.765Z,925.83
2018-12-20T12:04:50.445Z,925.80
2018-12-20T12:06:21.965Z,925.84
2018-12-20T12:07:53.796Z,925.80
2018-12-20T12:09:25.931Z,925.83
2018-12-20T12:10:58.010Z,925.84
2018-12-20T12:12:28.601Z,925.85
2018-12-20T12:13:59.884Z,925.85
2018-12-20T12:15:31.684Z,925.86
2018-12-20T12:17:03.618Z,925.81
2018-12-20T12:18:34.943Z,925.87
2018-12-20T12:20:06.528Z,925.90
2018-12-20T12:21:38.681Z,925.88
2018-12-20T12:23:09.366Z,925.97
2018-12-20T12:24:40.985Z,925.97
2018-12-20T12:26:12.712Z,925.97
2018-12-20T12:27:44.345Z,926.03
2018-12-20T12:29:16.594Z,926.01
2018-12-20T12:32:18.844Z,926.01
2018-12-20T12:33:50.528Z,926.02
2018-12-20T12:35:22.052Z,925.95
2018-12-20T12:38:25.886Z,926.03
2018-12-20T12:39:58.594Z,926.00
2018-12-20T12:41:29.056Z,926.00
2018-12-20T12:42:59.996Z,926.05
2018-12-20T12:44:31.808Z,926.08
2018-12-20T12:46:03.312Z,926.10
2018-12-20T12:47:34.942Z,926.10
2018-12-20T12:49:06.369Z,925.99
2018-12-20T12:50:38.120Z,925.91
2018-12-20T12:52:09.711Z,925.97
2018-12-20T12:53:41.147Z,925.91
2018-12-20T12:55:12.725Z,926.02
2018-12-20T12:56:44.350Z,926.03
2018-12-20T12:58:15.950Z,926.07
2018-12-20T12:59:47.552Z,926.02
2018-12-20T13:01:19.246Z,926.07
2018-12-20T13:02:50.678Z,926.05
2018-12-20T13:04:22.259Z,926.11
2018-12-20T13:05:53.821Z,925.92
2018-12-20T13:07:25.639Z,925.93
2018-12-20T13:10:28.611Z,925.90
2018-12-20T13:12:00.142Z,925.87
2018-12-20T13:13:32.188Z,925.81
2018-12-20T13:15:03.476Z,925.86
2018-12-20T13:16:34.935Z,925.84
2018-12-20T13:18:13.742Z,925.85
2018-12-20T13:19:38.127Z,925.76
2018-12-20T13:21:09.721Z,925.82
2018-12-20T13:22:41.519Z,925.81
2018-12-20T13:24:13.095Z,925.85
2018-12-20T13:25:44.394Z,925.90
2018-12-20T13:27:15.984Z,925.76
2018-12-20T13:30:19.621Z,925.58
2018-12-20T13:31:50.754Z,925.51
2018-12-20T13:33:22.356Z,925.62
2018-12-20T13:34:54.035Z,925.56
2018-12-20T13:36:25.863Z,925.50
2018-12-20T13:37:57.170Z,925.63
2018-12-20T13:39:28.793Z,925.64
2018-12-20T13:41:00.395Z,925.72
2018-12-20T13:42:31.954Z,925.66
2018-12-20T13:44:03.676Z,925.57
2018-12-20T13:45:35.132Z,925.68
2018-12-20T13:47:06.669Z,925.69
2018-12-20T13:48:38.343Z,925.58
2018-12-20T13:50:09.983Z,925.55
2018-12-20T13:51:41.425Z,925.49
2018-12-20T13:53:13.075Z,925.49
2018-12-20T13:54:45.127Z,925.42
2018-12-20T13:56:16.245Z,925.35
2018-12-20T13:57:48.431Z,925.38
2018-12-20T13:59:20.540Z,925.43
2018-12-20T14:00:51.116Z,925.42
2018-12-20T14:02:22.558Z,925.37
2018-12-20T14:03:54.718Z,925.31
2018-12-20T14:05:26.160Z,925.41
2018-12-20T14:06:57.544Z,925.38
2018-12-20T14:08:29.541Z,925.52
2018-12-20T14:10:00.507Z,925.33
2018-12-20T14:11:32.385Z,925.29
2018-12-20T14:13:04.270Z,925.34
2018-12-20T14:14:36.079Z,925.31
2018-12-20T14:16:07.009Z,925.09
2018-12-20T14:17:39.250Z,925.28
2018-12-20T14:19:10.647Z,925.32
2018-12-20T14:20:43.231Z,925.37
2018-12-20T14:22:14.115Z,925.38
2018-12-20T14:23:45.217Z,925.32
2018-12-20T14:25:17.644Z,925.47
2018-12-20T14:26:48.317Z,925.46
2018-12-20T14:28:19.636Z,925.21
2018-12-20T14:29:51.183Z,925.21
2018-12-20T14:31:22.878Z,925.20
2018-12-20T14:32:55.175Z,925.17
2018-12-20T14:34:26.003Z,925.16
2018-12-20T14:35:57.902Z,925.09
2018-12-20T14:37:29.183Z,925.08
2018-12-20T14:40:32.541Z,924.95
2018-12-20T14:42:04.070Z,924.85
2018-12-20T14:43:35.723Z,925.24
2018-12-20T14:45:08.202Z,925.39
2018-12-20T14:46:39.171Z,925.41
2018-12-20T14:49:42.095Z,925.11
2018-12-20T14:51:13.835Z,925.07
2018-12-20T14:52:45.761Z,925.06
2018-12-20T14:54:17.280Z,925.08
2018-12-20T14:55:48.206Z,925.09
2018-12-20T14:57:19.812Z,924.86
2018-12-20T14:58:51.693Z,925.06
2018-12-20T15:00:23.005Z,925.20
2018-12-20T15:01:54.672Z,925.26
2018-12-20T15:03:26.321Z,925.00
2018-12-20T15:04:57.836Z,924.73
2018-12-20T15:06:29.856Z,924.90
2018-12-20T15:08:00.939Z,925.00
2018-12-20T15:09:32.611Z,924.93
2018-12-20T15:11:04.522Z,925.13
2018-12-20T15:12:37.208Z,925.09
2018-12-20T15:14:07.382Z,925.09
2018-12-20T15:15:39.635Z,925.16
2018-12-20T15:17:11.070Z,925.10
2018-12-20T15:18:47.616Z,925.15
2018-12-20T15:20:16.008Z,925.23
2018-12-20T15:21:46.992Z,925.27
2018-12-20T15:23:17.451Z,925.16
2018-12-20T15:24:49.986Z,924.85
2018-12-20T15:26:22.341Z,925.03
2018-12-20T15:27:53.370Z,925.10
2018-12-20T15:29:23.490Z,925.30
2018-12-20T15:30:54.896Z,925.11
2018-12-20T15:32:26.771Z,924.97
2018-12-20T15:33:59.075Z,925.18
2018-12-20T15:35:31.027Z,925.27
2018-12-20T15:37:01.934Z,925.04
2018-12-20T15:38:33.792Z,925.05
2018-12-20T15:40:04.850Z,925.09
2018-12-20T15:41:36.987Z,925.02
2018-12-20T15:43:08.163Z,924.92
2018-12-20T15:44:40.425Z,924.52
2018-12-20T15:46:12.266Z,924.93
2018-12-20T15:47:42.297Z,924.90
2018-12-20T15:49:14.027Z,924.71
2018-12-20T15:50:45.880Z,924.73
2018-12-20T15:52:17.549Z,924.54
2018-12-20T15:53:48.616Z,924.21
2018-12-20T15:55:20.715Z,924.20
2018-12-20T15:56:52.053Z,924.17
2018-12-20T15:58:24.066Z,924.25
2018-12-20T15:59:55.154Z,924.06
2018-12-20T16:01:27.423Z,924.00
2018-12-20T16:02:58.202Z,923.88
2018-12-20T16:04:29.848Z,923.95
2018-12-20T16:06:01.546Z,924.32
2018-12-20T16:07:33.081Z,924.31
2018-12-20T16:09:04.845Z,923.99
2018-12-20T16:10:36.855Z,923.96
2018-12-20T16:12:07.804Z,924.05
2018-12-20T16:13:39.424Z,924.38
2018-12-20T16:15:11.527Z,924.40
2018-12-20T16:16:43.415Z,924.25
2018-12-20T16:18:14.092Z,924.15
2018-12-20T16:21:17.165Z,923.98
2018-12-20T16:22:48.964Z,923.86
2018-12-20T16:24:20.423Z,923.72
2018-12-20T16:25:51.950Z,923.74
2018-12-20T16:27:23.589Z,923.71
2018-12-20T16:28:55.747Z,923.75
2018-12-20T16:30:26.706Z,923.79
2018-12-20T16:31:58.858Z,923.87
2018-12-20T16:33:29.964Z,923.93
2018-12-20T16:35:02.427Z,923.90
2018-12-20T16:36:33.259Z,923.79
2018-12-20T16:38:04.814Z,923.70
2018-12-20T16:39:36.237Z,923.75
2018-12-20T16:41:08.062Z,923.70
2018-12-20T16:42:40.195Z,923.65
2018-12-20T16:44:11.050Z,923.66
2018-12-20T16:45:42.573Z,923.67
2018-12-20T16:47:14.176Z,923.68
2018-12-20T16:50:17.363Z,923.59
2018-12-20T16:51:49.129Z,923.63
2018-12-20T16:53:20.519Z,923.54
2018-12-20T16:54:52.385Z,923.50
2018-12-20T16:56:23.900Z,923.49
2018-12-20T16:57:55.605Z,923.48
2018-12-20T16:59:27.004Z,923.45
2018-12-20T17:00:58.466Z,923.42
2018-12-20T17:02:30.059Z,923.37
2018-12-20T17:04:01.847Z,923.34
2018-12-20T17:05:33.235Z,923.22
2018-12-20T17:08:36.417Z,923.19
2018-12-20T17:10:08.105Z,923.14
2018-12-20T17:11:39.797Z,923.15
2018-12-20T17:14:42.781Z,923.06
2018-12-20T17:16:14.362Z,923.06
2018-12-20T17:17:46.162Z,923.15
2018-12-20T17:20:49.432Z,922.93
2018-12-20T17:22:20.717Z,922.94
2018-12-20T17:23:52.302Z,922.85
2018-12-20T17:25:23.889Z,922.87
2018-12-20T17:26:56.115Z,922.86
2018-12-20T17:28:27.866Z,922.88
2018-12-20T17:29:58.659Z,922.92
2018-12-20T17:31:30.237Z,922.98
2018-12-20T17:33:01.824Z,922.88
2018-12-20T17:34:36.448Z,922.89
2018-12-20T17:36:05.933Z,922.89
2018-12-20T17:37:36.587Z,923.05
2018-12-20T17:39:08.174Z,922.85
2018-12-20T17:40:40.992Z,922.80
2018-12-20T17:42:11.593Z,922.76
2018-12-20T17:43:43.474Z,922.68
2018-12-20T17:45:14.779Z,922.64
2018-12-20T17:46:46.521Z,922.67
2018-12-20T17:48:17.991Z,922.61
2018-12-20T17:49:49.627Z,922.61
2018-12-20T17:51:20.889Z,922.50
2018-12-20T17:52:52.472Z,922.43
2018-12-20T17:54:24.064Z,922.28
2018-12-20T17:57:27.846Z,922.05
2018-12-20T18:00:30.416Z,922.56
2018-12-20T18:02:02.208Z,922.72
2018-12-20T18:03:33.596Z,922.86
2018-12-20T18:05:07.015Z,922.99
2018-12-20T18:06:36.871Z,922.75
2018-12-20T18:08:08.362Z,922.59
2018-12-20T18:09:39.947Z,922.63
2018-12-20T18:11:11.534Z,922.54
2018-12-20T18:12:43.326Z,922.46
2018-12-20T18:14:14.714Z,922.49
2018-12-20T18:15:46.306Z,922.56
2018-12-20T18:17:18.138Z,922.45
2018-12-20T18:20:21.068Z,922.29
2018-12-20T18:21:52.660Z,922.30
2018-12-20T18:24:57.160Z,921.66
2018-12-20T18:29:30.895Z,922.13
2018-12-20T18:31:02.183Z,922.41
2018-12-20T18:32:34.002Z,922.41
2018-12-20T18:34:05.353Z,922.35
2018-12-20T18:35:36.967Z,922.41
2018-12-20T18:37:08.525Z,922.47
2018-12-20T18:38:40.112Z,922.42
2018-12-20T18:40:11.700Z,922.40
2018-12-20T18:41:44.010Z,922.32
2018-12-20T18:43:14.874Z,922.35
2018-12-20T18:44:46.462Z,922.30
2018-12-20T18:46:18.050Z,922.19
2018-12-20T18:47:50.043Z,922.26
2018-12-20T18:49:21.225Z,922.32
2018-12-20T18:50:52.813Z,922.24
2018-12-20T18:52:24.400Z,922.26
2018-12-20T18:53:55.988Z,922.35
2018-12-20T18:55:28.099Z,922.37
2018-12-20T18:56:59.470Z,921.22
2018-12-20T19:00:02.344Z,921.64
2018-12-20T19:01:33.928Z,922.12
2018-12-20T19:03:06.038Z,922.12
2018-12-20T19:04:37.168Z,922.06
2018-12-20T19:06:08.790Z,921.94
2018-12-20T19:07:40.288Z,922.02
2018-12-20T19:09:11.864Z,921.95
2018-12-20T19:12:15.052Z,921.83
2018-12-20T19:15:18.519Z,921.68
2018-12-20T19:18:21.590Z,921.51
2018-12-20T19:19:56.546Z,921.42
2018-12-20T19:21:24.563Z,921.11
2018-12-20T19:22:56.167Z,920.67
2018-12-20T19:24:28.040Z,920.62
2018-12-20T19:25:59.847Z,920.86
2018-12-20T19:29:02.805Z,920.90
2018-12-20T19:30:34.085Z,920.76
2018-12-20T19:32:05.668Z,920.75
2018-12-20T19:33:37.456Z,920.68
2018-12-20T19:35:08.874Z,920.71
2018-12-20T19:36:40.431Z,920.80
2018-12-20T19:41:15.187Z,920.56
2018-12-20T19:44:18.463Z,920.44
2018-12-20T19:47:21.533Z,920.57
2018-12-20T19:48:53.642Z,920.54
2018-12-20T19:50:24.750Z,920.62
2018-12-20T19:51:56.305Z,920.59
2018-12-20T19:53:27.874Z,920.51
2018-12-20T19:54:59.763Z,920.48
2018-12-20T19:56:31.073Z,920.52
2018-12-20T19:58:02.829Z,920.62
2018-12-20T19:59:38.694Z,920.63
2018-12-20T20:01:06.522Z,920.75
2018-12-20T20:02:37.478Z,920.68
2018-12-20T20:04:08.963Z,920.64
2018-12-20T20:05:40.546Z,920.67
2018-12-20T20:07:12.332Z,920.61